Time;durP1;ratioP1;P1;durP2;ratioP2;P2;SDS_P1;SDS_P2;PMS_P1;PMS_P2;Temp;Humidity;BMP_temperature;BMP_pressure;BME280_temperature;BME280_humidity;BME280_pressure;Samples;Min_cycle;Max_cycle;Signal;HPM_P1;HPM_P2
2021/05/28 00:01:22;;;;;;;12.30;2.80;;;;;;;19.78;51.80;100665.28;5052600;28;20048;-65
2021/05/28 00:03:49;;;;;;;11.82;3.15;;;;;;;19.75;52.13;100667.19;5050872;28;20131;-65
2021/05/28 00:06:16;;;;;;;11.70;2.90;;;;;;;19.82;52.12;100666.13;5050622;28;20041;-65
2021/05/28 00:08:43;;;;;;;8.90;2.63;;;;;;;19.81;52.22;100669.72;5066449;28;20190;-65
2021/05/28 00:11:12;;;;;;;7.50;2.47;;;;;;;19.77;52.17;100665.31;5065945;28;20060;-66
2021/05/28 00:13:39;;;;;;;9.30;2.67;;;;;;;19.79;52.12;100663.50;5060911;28;20057;-66
2021/05/28 00:16:06;;;;;;;11.70;2.97;;;;;;;19.81;52.17;100659.88;5056194;28;20047;-65
2021/05/28 00:18:33;;;;;;;9.93;2.53;;;;;;;19.75;52.56;100665.38;5050065;28;20083;-65
2021/05/28 00:21:00;;;;;;;8.55;2.45;;;;;;;19.65;53.01;100661.13;5065384;28;20123;-65
2021/05/28 00:23:27;;;;;;;8.63;2.60;;;;;;;19.68;52.70;100655.72;5069816;28;20123;-65
2021/05/28 00:25:54;;;;;;;6.65;2.53;;;;;;;19.63;52.86;100657.59;5069541;28;20078;-66
2021/05/28 00:28:23;;;;;;;7.95;3.13;;;;;;;19.65;53.31;100652.22;5057736;28;20053;-66
2021/05/28 00:30:51;;;;;;;8.40;3.03;;;;;;;19.67;53.35;100645.94;5051378;28;20540;-66
2021/05/28 00:33:18;;;;;;;14.05;3.22;;;;;;;19.61;53.37;100642.50;5051444;28;20033;-65
2021/05/28 00:35:45;;;;;;;8.98;2.90;;;;;;;19.53;53.71;100634.66;5060763;28;20086;-66
2021/05/28 00:38:12;;;;;;;9.23;2.60;;;;;;;19.59;53.31;100637.19;5069848;28;20047;-65
2021/05/28 00:40:39;;;;;;;8.93;3.05;;;;;;;19.67;53.05;100629.84;5068968;28;20040;-66
2021/05/28 00:43:06;;;;;;;6.93;2.45;;;;;;;19.74;52.87;100618.06;5067326;28;20071;-65
2021/05/28 00:45:34;;;;;;;10.27;2.20;;;;;;;19.75;52.68;100613.59;5070198;28;20041;-66
2021/05/28 00:48:01;;;;;;;9.25;3.03;;;;;;;19.74;52.77;100617.19;5069992;28;20124;-65
2021/05/28 00:50:29;;;;;;;12.10;3.13;;;;;;;19.64;53.24;100616.53;5057481;28;20515;-65
2021/05/28 00:52:58;;;;;;;10.00;2.90;;;;;;;19.63;53.58;100622.78;5058990;28;20045;-65
2021/05/28 00:55:26;;;;;;;6.45;2.13;;;;;;;19.62;53.78;100613.03;5082991;28;20046;-65
2021/05/28 00:57:55;;;;;;;8.23;2.55;;;;;;;19.51;54.11;100612.38;5068128;28;20079;-65
2021/05/28 01:00:25;;;;;;;9.90;2.67;;;;;;;19.48;54.57;100613.34;5084611;28;20046;-66
2021/05/28 01:02:53;;;;;;;7.68;2.95;;;;;;;19.61;54.34;100618.41;5060736;28;20049;-66
2021/05/28 01:05:21;;;;;;;8.00;2.60;;;;;;;19.54;54.34;100624.81;5049502;28;20112;-66
2021/05/28 01:07:48;;;;;;;9.48;2.95;;;;;;;19.56;54.39;100618.50;5053349;28;20514;-65
2021/05/28 01:10:15;;;;;;;9.30;2.40;;;;;;;19.66;54.40;100622.72;5069375;28;20111;-66
2021/05/28 01:12:43;;;;;;;8.80;2.60;;;;;;;19.74;54.29;100626.13;5051598;28;20524;-66
2021/05/28 01:15:11;;;;;;;7.75;2.80;;;;;;;19.81;54.17;100635.78;5049621;28;20049;-66
2021/05/28 01:17:39;;;;;;;8.48;2.55;;;;;;;19.84;54.28;100629.44;5049723;28;20094;-65
2021/05/28 01:20:10;;;;;;;9.80;2.75;;;;;;;19.81;54.27;100635.78;5064312;28;20052;-66
2021/05/28 01:22:39;;;;;;;9.23;2.20;;;;;;;19.74;54.49;100626.13;5049193;28;20067;-66
2021/05/28 01:25:07;;;;;;;8.02;2.65;;;;;;;19.72;54.81;100633.28;5065304;28;20112;-65
2021/05/28 01:27:34;;;;;;;8.85;2.58;;;;;;;19.71;55.02;100620.81;5068479;28;20135;-65
2021/05/28 01:30:02;;;;;;;7.90;2.67;;;;;;;19.72;55.14;100627.94;5067870;28;20036;-66
2021/05/28 01:32:28;;;;;;;9.95;2.88;;;;;;;19.68;55.71;100622.69;5069247;28;20128;-65
2021/05/28 01:34:55;;;;;;;8.52;2.78;;;;;;;19.53;56.02;100626.63;5068904;28;20028;-65
2021/05/28 01:37:23;;;;;;;9.45;3.25;;;;;;;19.52;56.31;100618.59;5069464;28;20029;-65
2021/05/28 01:39:52;;;;;;;9.93;2.65;;;;;;;19.52;56.74;100611.47;5068988;28;20135;-65
2021/05/28 01:42:21;;;;;;;7.28;2.83;;;;;;;19.55;56.86;100610.53;5069266;28;20078;-65
2021/05/28 01:44:48;;;;;;;8.63;2.85;;;;;;;19.50;57.08;100611.50;5066558;28;20127;-65
2021/05/28 01:47:16;;;;;;;13.93;3.20;;;;;;;19.46;57.65;100619.63;5052097;28;20120;-65
2021/05/28 01:49:43;;;;;;;9.43;2.85;;;;;;;19.42;57.72;100618.81;5066152;28;20131;-65
2021/05/28 01:52:10;;;;;;;10.18;2.45;;;;;;;19.39;57.90;100609.94;5069266;28;20036;-65
2021/05/28 01:54:39;;;;;;;8.55;3.33;;;;;;;19.39;57.96;100604.59;5065037;28;20083;-66
2021/05/28 01:57:09;;;;;;;10.43;2.95;;;;;;;19.40;58.11;100606.38;5065450;28;20053;-65
2021/05/28 01:59:36;;;;;;;7.70;3.05;;;;;;;19.33;58.29;100610.09;5064439;28;20040;-65
2021/05/28 02:02:04;;;;;;;9.52;2.75;;;;;;;19.29;58.48;100609.28;5052527;28;20464;-65
2021/05/28 02:04:31;;;;;;;9.60;2.83;;;;;;;19.27;58.52;100602.19;5048675;28;20129;-66
2021/05/28 02:06:58;;;;;;;9.63;2.70;;;;;;;19.30;58.22;100597.66;5049817;28;20073;-65
2021/05/28 02:09:25;;;;;;;12.38;3.03;;;;;;;19.29;58.17;100595.03;5060947;28;20041;-66
2021/05/28 02:11:52;;;;;;;9.85;3.00;;;;;;;19.28;58.35;100610.19;5069968;28;20045;-66
2021/05/28 02:14:21;;;;;;;8.35;2.95;;;;;;;19.22;58.61;100614.81;5069222;28;20760;-66
2021/05/28 02:16:49;;;;;;;6.88;2.90;;;;;;;19.16;58.65;100612.28;5068029;28;20089;-65
2021/05/28 02:19:16;;;;;;;8.73;3.05;;;;;;;19.16;58.73;100606.91;5065346;28;20056;-66
2021/05/28 02:21:44;;;;;;;7.07;2.35;;;;;;;19.21;58.55;100610.38;5072222;28;20107;-65
2021/05/28 02:24:14;;;;;;;9.00;2.80;;;;;;;19.24;58.50;100600.47;5072248;28;20385;-65
2021/05/28 02:27:01;;;;;;;13.07;2.80;;;;;;;19.17;58.86;100606.88;5072287;28;20033;-65
2021/05/28 02:29:29;;;;;;;9.30;2.67;;;;;;;19.13;58.90;100604.28;5060757;28;20128;-65
2021/05/28 02:31:56;;;;;;;11.23;3.05;;;;;;;19.07;59.21;100605.31;5066712;28;20120;-65
2021/05/28 02:34:23;;;;;;;5.53;2.65;;;;;;;19.03;59.32;100615.19;5062439;28;20128;-66
2021/05/28 02:36:50;;;;;;;10.98;2.45;;;;;;;18.99;59.17;100620.66;5052457;28;20067;-66
2021/05/28 02:39:17;;;;;;;9.45;3.10;;;;;;;18.89;59.31;100622.66;5064120;28;20583;-65
2021/05/28 02:41:44;;;;;;;7.47;2.67;;;;;;;18.87;59.53;100608.41;5072476;28;20053;-65
2021/05/28 02:44:11;;;;;;;10.68;2.75;;;;;;;18.87;59.39;100616.44;5070026;28;20181;-65
2021/05/28 02:46:39;;;;;;;8.02;2.40;;;;;;;18.88;59.22;100612.88;5064873;28;20041;-65
2021/05/28 02:49:07;;;;;;;9.45;2.67;;;;;;;18.87;59.08;100626.25;5060226;28;20058;-65
2021/05/28 02:51:34;;;;;;;8.23;2.50;;;;;;;18.89;59.04;100619.97;5071831;28;20101;-65
2021/05/28 02:54:01;;;;;;;10.57;2.95;;;;;;;18.91;59.00;100630.63;5072008;28;20047;-65
2021/05/28 02:56:28;;;;;;;13.68;3.47;;;;;;;18.88;58.96;100618.22;5064454;28;20120;-65
2021/05/28 02:58:55;;;;;;;9.63;3.30;;;;;;;18.84;59.05;100615.66;5057939;28;20120;-65
2021/05/28 03:01:22;;;;;;;12.48;2.80;;;;;;;18.81;59.14;100624.59;5054556;28;20660;-65
2021/05/28 03:03:50;;;;;;;10.23;2.67;;;;;;;18.87;58.92;100631.63;5052083;28;20541;-66
2021/05/28 03:06:17;;;;;;;11.13;2.80;;;;;;;18.88;58.82;100626.25;5051978;28;20111;-65
2021/05/28 03:08:44;;;;;;;8.23;2.65;;;;;;;18.89;58.77;100632.47;5055604;28;20140;-65
2021/05/28 03:11:11;;;;;;;8.85;3.10;;;;;;;18.82;58.80;100634.38;5051769;28;20128;-65
2021/05/28 03:13:38;;;;;;;7.20;3.55;;;;;;;18.72;58.89;100627.44;5051923;28;20079;-65
2021/05/28 03:16:06;;;;;;;13.57;2.65;;;;;;;18.75;58.85;100622.06;5062895;28;20060;-65
2021/05/28 03:18:44;;;;;;;6.30;2.58;;;;;;;18.87;58.45;100632.50;5070560;28;20365;-66
2021/05/28 03:21:24;;;;;;;10.70;2.72;;;;;;;18.90;58.26;100627.09;5069792;28;20797;-66
2021/05/28 03:23:53;;;;;;;14.85;3.72;;;;;;;18.92;58.55;100624.38;5070829;28;20159;-66
2021/05/28 03:26:21;;;;;;;8.95;2.67;;;;;;;19.02;58.35;100632.19;5071371;28;20041;-65
2021/05/28 03:28:48;;;;;;;12.48;2.50;;;;;;;19.02;58.33;100632.19;5065165;28;20502;-64
2021/05/28 03:31:16;;;;;;;8.05;2.50;;;;;;;19.10;58.23;100623.97;5052572;28;20141;-65
2021/05/28 03:33:43;;;;;;;11.15;3.00;;;;;;;19.26;58.01;100619.19;5059419;28;20115;-66
2021/05/28 03:36:13;;;;;;;8.52;2.20;;;;;;;19.41;57.57;100619.72;5051287;28;20692;-65
2021/05/28 03:38:42;;;;;;;12.23;2.38;;;;;;;19.48;57.49;100625.84;5055239;28;20036;-65
2021/05/28 03:41:09;;;;;;;3.75;1.80;;;;;;;19.55;57.36;100622.13;5068309;28;20033;-65
2021/05/28 03:43:37;;;;;;;10.48;2.90;;;;;;;19.66;57.02;100628.09;5065401;28;20113;-66
2021/05/28 03:46:04;;;;;;;7.90;2.05;;;;;;;19.78;56.79;100625.09;5071115;28;20043;-64
2021/05/28 03:48:32;;;;;;;6.10;1.52;;;;;;;19.89;56.47;100617.69;5070593;28;20102;-65
2021/05/28 03:50:59;;;;;;;7.25;2.00;;;;;;;20.06;56.42;100619.06;5069444;28;20469;-66
2021/05/28 03:53:26;;;;;;;6.60;2.40;;;;;;;20.26;56.35;100622.13;5070472;28;20120;-65
2021/05/28 03:55:54;;;;;;;5.03;2.25;;;;;;;20.33;56.31;100615.72;5071354;28;20067;-65
2021/05/28 03:58:21;;;;;;;6.70;1.90;;;;;;;20.55;55.81;100618.66;5069415;28;20128;-65
2021/05/28 04:00:48;;;;;;;9.40;2.25;;;;;;;20.62;55.01;100628.31;5068559;28;20040;-65
2021/05/28 04:03:16;;;;;;;6.65;2.08;;;;;;;20.68;54.63;100622.75;5070577;28;20058;-65
2021/05/28 04:05:43;;;;;;;6.43;2.33;;;;;;;20.86;54.63;100632.13;5070933;28;20165;-66
2021/05/28 04:08:10;;;;;;;16.17;3.00;;;;;;;21.08;54.18;100635.91;5070059;28;20074;-65
2021/05/28 04:10:37;;;;;;;10.93;2.65;;;;;;;21.33;53.72;100639.66;5066382;28;20039;-66
2021/05/28 04:13:05;;;;;;;10.20;3.35;;;;;;;21.54;52.77;100647.97;5061245;28;20048;-65
2021/05/28 04:15:32;;;;;;;10.30;3.75;;;;;;;21.73;52.90;100643.78;5064143;28;20045;-65
2021/05/28 04:17:59;;;;;;;7.75;2.33;;;;;;;21.96;52.46;100646.66;5050586;28;20572;-65
2021/05/28 04:20:27;;;;;;;7.88;2.80;;;;;;;22.15;52.07;100647.78;5068611;28;20135;-65
2021/05/28 04:22:53;;;;;;;6.60;2.05;;;;;;;22.39;50.92;100643.38;5068910;28;20040;-66
2021/05/28 04:25:20;;;;;;;8.55;2.85;;;;;;;22.63;50.68;100653.28;5063984;28;20040;-67
2021/05/28 04:27:47;;;;;;;5.82;1.60;;;;;;;22.90;50.13;100648.75;5069776;28;20468;-65
2021/05/28 04:30:23;;;;;;;8.55;1.77;;;;;;;23.18;49.35;100659.34;5066630;28;20659;-65
2021/05/28 04:32:51;;;;;;;12.38;3.20;;;;;;;23.42;49.22;100657.53;5065322;28;20048;-66
2021/05/28 04:35:18;;;;;;;5.35;2.03;;;;;;;23.63;48.76;100659.41;5069094;28;20587;-66
2021/05/28 04:37:45;;;;;;;7.47;2.25;;;;;;;23.89;48.04;100661.06;5069925;28;20048;-66
2021/05/28 04:40:13;;;;;;;9.13;1.83;;;;;;;24.16;47.33;100659.91;5054359;28;20044;-65
2021/05/28 04:42:40;;;;;;;4.57;1.73;;;;;;;24.40;46.81;100667.94;5050927;28;20036;-66
2021/05/28 04:45:08;;;;;;;6.57;2.05;;;;;;;24.69;46.15;100669.38;5051758;28;20043;-66
2021/05/28 04:47:36;;;;;;;4.63;1.67;;;;;;;24.97;45.77;100662.72;5061979;28;20040;-66
2021/05/28 04:50:04;;;;;;;5.05;1.40;;;;;;;25.26;45.21;100666.78;5069244;28;20151;-66
2021/05/28 04:52:31;;;;;;;6.47;1.50;;;;;;;25.57;44.44;100660.84;5054029;28;20068;-66
2021/05/28 04:54:58;;;;;;;7.65;1.35;;;;;;;25.80;44.27;100660.59;5047938;28;20041;-66
2021/05/28 04:57:25;;;;;;;5.22;1.67;;;;;;;26.11;44.15;100661.78;5048173;28;20053;-66
2021/05/28 04:59:52;;;;;;;6.90;1.73;;;;;;;26.44;43.82;100661.94;5052020;28;20044;-66
2021/05/28 05:02:19;;;;;;;8.15;1.58;;;;;;;26.71;43.39;100656.91;5050205;28;20164;-66
2021/05/28 05:04:48;;;;;;;6.50;1.85;;;;;;;27.08;43.23;100666.69;5049317;28;20032;-66
2021/05/28 05:07:15;;;;;;;6.75;2.03;;;;;;;27.37;43.17;100658.69;5050508;28;20131;-66
2021/05/28 05:09:42;;;;;;;7.53;2.28;;;;;;;27.56;42.74;100669.44;5049083;28;20524;-66
2021/05/28 05:12:09;;;;;;;8.30;1.92;;;;;;;27.71;42.08;100673.09;5058759;28;20522;-66
2021/05/28 05:14:36;;;;;;;6.40;1.73;;;;;;;27.75;41.58;100672.88;5051587;28;20025;-66
2021/05/28 05:17:04;;;;;;;9.30;1.45;;;;;;;27.94;41.55;100677.22;5049569;28;20135;-66
2021/05/28 05:19:31;;;;;;;9.40;2.30;;;;;;;28.08;40.52;100671.88;5059802;28;20504;-66
2021/05/28 05:21:59;;;;;;;4.32;1.73;;;;;;;28.06;39.56;100671.09;5062936;28;20132;-66
2021/05/28 05:24:25;;;;;;;6.35;1.60;;;;;;;28.37;38.88;100679.22;5058659;28;20082;-66
2021/05/28 05:26:53;;;;;;;8.93;1.65;;;;;;;28.53;38.43;100674.63;5055617;28;20095;-66
2021/05/28 05:29:20;;;;;;;7.05;1.83;;;;;;;28.59;37.89;100681.53;5068602;28;20127;-66
2021/05/28 05:31:47;;;;;;;10.32;1.50;;;;;;;28.84;36.89;100689.97;5068620;28;20131;-67
2021/05/28 05:34:14;;;;;;;7.05;1.98;;;;;;;29.16;36.58;100684.38;5066172;28;20131;-66
2021/05/28 05:36:41;;;;;;;9.60;1.60;;;;;;;29.26;36.72;100696.44;5063296;28;20040;-67
2021/05/28 05:39:10;;;;;;;9.18;1.88;;;;;;;29.47;36.61;100688.78;5056151;28;20044;-66
2021/05/28 05:41:38;;;;;;;8.35;1.60;;;;;;;29.71;36.01;100688.06;5067164;28;20599;-66
2021/05/28 05:44:05;;;;;;;9.90;1.75;;;;;;;29.84;35.25;100682.69;5066397;28;20109;-66
2021/05/28 05:46:33;;;;;;;9.10;1.70;;;;;;;29.92;35.40;100672.22;5068449;28;20071;-65
2021/05/28 05:49:00;;;;;;;6.55;1.90;;;;;;;30.23;35.10;100681.06;5054346;28;20059;-66
2021/05/28 05:51:27;;;;;;;6.60;1.58;;;;;;;30.29;34.74;100670.63;5068551;28;20029;-66
2021/05/28 05:53:54;;;;;;;11.02;1.42;;;;;;;30.32;34.81;100678.59;5068988;28;20119;-66
2021/05/28 05:56:23;;;;;;;9.35;1.60;;;;;;;30.47;34.67;100682.09;5068509;28;20135;-66
2021/05/28 05:58:49;;;;;;;8.93;1.77;;;;;;;30.53;34.55;100684.44;5068908;28;20119;-66
2021/05/28 06:01:16;;;;;;;12.05;1.55;;;;;;;30.74;34.65;100687.53;5066386;28;20129;-66
2021/05/28 06:03:43;;;;;;;7.32;1.73;;;;;;;30.99;34.35;100687.56;5068033;28;20064;-66
2021/05/28 06:06:11;;;;;;;10.35;1.80;;;;;;;31.22;33.86;100685.97;5068136;28;20036;-66
2021/05/28 06:08:37;;;;;;;8.55;1.70;;;;;;;31.46;33.49;100683.31;5068120;28;20072;-66
2021/05/28 06:11:05;;;;;;;8.65;1.70;;;;;;;31.43;33.34;100683.56;5064191;28;20080;-67
2021/05/28 06:13:33;;;;;;;5.15;1.38;;;;;;;31.52;32.88;100677.41;5065671;28;20055;-67
2021/05/28 06:16:00;;;;;;;5.45;1.77;;;;;;;31.36;32.35;100682.25;5054918;28;20060;-66
2021/05/28 06:18:28;;;;;;;5.55;1.70;;;;;;;31.04;32.86;100673.63;5066786;28;20131;-66
2021/05/28 06:20:55;;;;;;;9.35;1.60;;;;;;;31.14;32.93;100680.19;5063717;28;20152;-66
2021/05/28 06:23:22;;;;;;;8.75;1.80;;;;;;;31.32;33.14;100683.44;5068481;28;20223;-66
2021/05/28 06:25:49;;;;;;;7.38;1.60;;;;;;;31.37;33.19;100682.16;5068505;28;20131;-66
2021/05/28 06:28:16;;;;;;;5.90;1.40;;;;;;;31.43;32.96;100678.97;5068580;28;20060;-66
2021/05/28 06:30:44;;;;;;;5.88;1.58;;;;;;;31.35;32.71;100685.97;5068869;28;20028;-66
2021/05/28 06:33:11;;;;;;;11.40;1.90;;;;;;;31.36;33.00;100691.31;5068235;28;20527;-66
2021/05/28 06:35:39;;;;;;;7.30;1.90;;;;;;;31.36;32.85;100691.31;5067999;28;20060;-66
2021/05/28 06:38:08;;;;;;;9.45;1.92;;;;;;;31.48;33.23;100690.44;5068765;28;20043;-67
2021/05/28 06:40:35;;;;;;;5.95;1.60;;;;;;;31.60;33.29;100697.75;5068736;28;20037;-66
2021/05/28 06:43:02;;;;;;;7.22;1.65;;;;;;;31.67;33.00;100701.78;5068576;28;20562;-66
2021/05/28 06:45:29;;;;;;;7.78;2.25;;;;;;;31.84;32.86;100702.38;5068325;28;20687;-66
2021/05/28 06:47:58;;;;;;;8.52;2.00;;;;;;;31.92;32.82;100709.03;5067978;28;20091;-67
2021/05/28 06:50:25;;;;;;;9.02;2.00;;;;;;;31.86;33.07;100706.75;5068998;28;20040;-67
2021/05/28 06:52:52;;;;;;;8.32;1.88;;;;;;;31.81;33.23;100703.50;5051460;28;20048;-67
2021/05/28 06:55:19;;;;;;;9.18;1.80;;;;;;;31.91;33.08;100712.75;5047109;28;20037;-67
2021/05/28 06:57:47;;;;;;;8.23;1.48;;;;;;;32.12;33.24;100701.22;5068437;28;20049;-67
2021/05/28 07:00:14;;;;;;;11.23;2.28;;;;;;;32.25;33.23;100705.66;5070562;28;20040;-66
2021/05/28 07:02:41;;;;;;;9.50;2.35;;;;;;;32.27;33.86;100705.56;5071879;28;20132;-67
2021/05/28 07:05:11;;;;;;;9.40;2.00;;;;;;;32.38;33.87;100719.28;5072019;28;20518;-67
2021/05/28 07:07:40;;;;;;;8.18;1.60;;;;;;;32.42;34.39;100715.34;5071885;28;20155;-67
2021/05/28 07:10:08;;;;;;;8.52;2.10;;;;;;;32.55;34.28;100715.28;5071346;28;20041;-67
2021/05/28 07:12:35;;;;;;;11.02;2.17;;;;;;;32.56;34.53;100720.59;5070685;28;20048;-67
2021/05/28 07:15:04;;;;;;;9.18;1.95;;;;;;;32.54;34.76;100727.19;5071429;28;20036;-66
2021/05/28 07:17:31;;;;;;;13.15;2.05;;;;;;;32.55;34.98;100727.09;5071606;28;20039;-67
2021/05/28 07:19:58;;;;;;;7.78;2.20;;;;;;;32.37;35.05;100732.06;5071637;28;20060;-66
2021/05/28 07:22:26;;;;;;;11.40;2.05;;;;;;;32.32;35.56;100731.56;5072220;28;20124;-66
2021/05/28 07:24:53;;;;;;;12.68;2.40;;;;;;;32.43;35.32;100731.59;5071124;28;20124;-67
2021/05/28 07:27:20;;;;;;;10.68;2.10;;;;;;;32.35;35.46;100734.06;5071541;28;20770;-67
2021/05/28 07:29:47;;;;;;;9.32;1.80;;;;;;;32.26;35.42;100740.22;5071464;28;20111;-67
2021/05/28 07:32:14;;;;;;;11.02;2.00;;;;;;;32.17;35.61;100743.63;5071390;28;20174;-67
2021/05/28 07:34:41;;;;;;;8.32;2.03;;;;;;;32.23;35.36;100743.16;5071445;28;20052;-66
2021/05/28 07:37:09;;;;;;;8.88;1.90;;;;;;;32.32;35.37;100749.81;5070886;28;20036;-66
2021/05/28 07:39:37;;;;;;;11.20;2.60;;;;;;;32.49;35.46;100743.97;5071675;28;20219;-67
2021/05/28 07:42:05;;;;;;;10.05;1.85;;;;;;;32.56;35.42;100744.38;5051737;28;20056;-66
2021/05/28 07:44:32;;;;;;;10.98;1.90;;;;;;;32.42;35.50;100748.16;5050931;28;20400;-67
2021/05/28 07:47:00;;;;;;;10.20;1.90;;;;;;;32.41;35.68;100747.28;5051463;28;20037;-66
2021/05/28 07:49:27;;;;;;;9.13;1.70;;;;;;;32.32;35.37;100745.22;5070273;28;20033;-66
2021/05/28 07:51:54;;;;;;;10.93;2.25;;;;;;;32.14;35.59;100746.59;5071151;28;20036;-67
2021/05/28 07:54:21;;;;;;;10.27;2.38;;;;;;;32.24;35.95;100753.13;5071365;28;20063;-66
2021/05/28 07:56:48;;;;;;;9.27;2.10;;;;;;;32.47;35.25;100743.19;5071339;28;20040;-67
2021/05/28 07:59:16;;;;;;;9.35;2.55;;;;;;;32.37;35.45;100753.94;5070819;28;20575;-66
2021/05/28 08:01:44;;;;;;;12.35;2.53;;;;;;;32.34;35.46;100759.66;5069924;28;20051;-67
2021/05/28 08:04:12;;;;;;;8.90;1.92;;;;;;;32.37;35.11;100756.69;5070535;28;20098;-67
2021/05/28 08:06:39;;;;;;;6.57;1.77;;;;;;;32.44;35.04;100747.03;5070551;28;20079;-67
2021/05/28 08:09:06;;;;;;;9.07;1.73;;;;;;;32.51;34.99;100754.75;5071112;28;20049;-66
2021/05/28 08:11:33;;;;;;;7.93;2.42;;;;;;;32.60;34.78;100763.16;5070751;28;20036;-66
2021/05/28 08:14:01;;;;;;;6.07;1.60;;;;;;;32.65;34.27;100758.19;5070558;28;20115;-66
2021/05/28 08:16:28;;;;;;;12.65;3.00;;;;;;;32.68;34.31;100759.88;5070064;28;20106;-66
2021/05/28 08:18:55;;;;;;;7.85;2.22;;;;;;;32.90;34.09;100767.25;5068463;28;20067;-67
2021/05/28 08:21:23;;;;;;;11.77;2.53;;;;;;;33.06;33.97;100770.56;5070216;28;20410;-66
2021/05/28 08:23:50;;;;;;;9.70;2.50;;;;;;;33.26;33.88;100775.38;5066870;28;20072;-67
2021/05/28 08:26:17;;;;;;;12.73;2.30;;;;;;;33.27;34.12;100779.00;5068840;28;20056;-66
2021/05/28 08:28:44;;;;;;;11.60;2.28;;;;;;;33.34;34.04;100774.78;5068257;28;20040;-67
2021/05/28 08:31:12;;;;;;;9.45;2.47;;;;;;;33.36;33.71;100789.19;5069465;28;20056;-66
2021/05/28 08:33:40;;;;;;;9.68;2.10;;;;;;;33.39;33.74;100786.25;5069170;28;20747;-66
2021/05/28 08:36:07;;;;;;;12.85;2.50;;;;;;;33.34;33.74;100793.94;5069315;28;20119;-66
2021/05/28 08:38:34;;;;;;;11.13;2.42;;;;;;;33.33;34.23;100790.34;5069691;28;20032;-67
2021/05/28 08:41:01;;;;;;;12.57;2.00;;;;;;;33.34;34.14;100791.22;5069573;28;20488;-67
2021/05/28 08:43:28;;;;;;;8.68;1.98;;;;;;;33.36;34.45;100798.28;5069685;28;20046;-67
2021/05/28 08:45:57;;;;;;;11.48;2.72;;;;;;;33.49;33.72;100790.84;5070323;28;20125;-67
2021/05/28 08:48:26;;;;;;;12.50;2.00;;;;;;;33.45;33.91;100796.69;5069350;28;20129;-66
2021/05/28 08:50:52;;;;;;;9.07;2.15;;;;;;;33.39;33.75;100798.06;5066811;28;20044;-66
2021/05/28 08:53:20;;;;;;;12.10;2.65;;;;;;;33.50;33.72;100799.94;5069508;28;20044;-68
2021/05/28 08:55:47;;;;;;;10.85;2.42;;;;;;;33.39;33.87;100791.72;5069093;28;20541;-67
2021/05/28 08:58:16;;;;;;;13.55;2.28;;;;;;;33.56;33.58;100799.44;5069738;28;20620;-66
2021/05/28 09:00:44;;;;;;;11.57;2.10;;;;;;;33.63;33.60;100795.22;5068396;28;20036;-66
2021/05/28 09:03:23;;;;;;;10.57;2.20;;;;;;;33.57;33.53;100782.03;5069120;28;20123;-66
2021/05/28 09:05:53;;;;;;;13.98;2.58;;;;;;;33.48;33.51;100790.97;5068555;28;20469;-66
2021/05/28 09:08:28;;;;;;;9.70;2.30;;;;;;;33.46;33.57;100792.97;5067852;28;20131;-66
2021/05/28 09:11:04;;;;;;;9.80;2.08;;;;;;;33.50;33.50;100799.94;5068746;28;20036;-66
2021/05/28 09:13:31;;;;;;;13.43;2.50;;;;;;;33.27;33.34;100795.44;5062925;28;20036;-66
2021/05/28 09:16:08;;;;;;;14.65;2.60;;;;;;;33.23;33.60;100792.03;5046976;28;20056;-66
2021/05/28 09:18:43;;;;;;;8.70;1.95;;;;;;;33.25;33.35;100784.59;5057250;28;20129;-65
2021/05/28 09:21:12;;;;;;;9.40;1.90;;;;;;;33.26;33.52;100796.41;5049715;28;20044;-66
2021/05/28 09:23:40;;;;;;;7.47;2.35;;;;;;;33.17;33.57;100800.69;5048349;28;20045;-65
2021/05/28 09:26:11;;;;;;;11.00;2.60;;;;;;;33.42;33.69;100800.53;5051110;28;20037;-66
2021/05/28 09:28:44;;;;;;;9.15;2.05;;;;;;;33.55;33.87;100808.66;5049423;28;20068;-66
2021/05/28 09:31:14;;;;;;;12.93;2.25;;;;;;;33.56;33.83;100804.94;5061352;28;20131;-66
2021/05/28 09:33:45;;;;;;;12.02;2.70;;;;;;;33.75;33.98;100788.78;5058343;28;20044;-66
2021/05/28 09:36:16;;;;;;;11.98;2.53;;;;;;;33.84;33.90;100799.00;5066353;28;20101;-66
2021/05/28 09:39:01;;;;;;;9.57;2.05;;;;;;;33.92;33.77;100799.28;5066904;28;20128;-66
2021/05/28 09:41:39;;;;;;;8.63;2.08;;;;;;;34.03;33.57;100798.38;5068286;28;20041;-66
2021/05/28 09:44:09;;;;;;;10.00;2.30;;;;;;;34.19;33.82;100787.91;5068026;28;20120;-66
2021/05/28 09:46:36;;;;;;;10.43;2.35;;;;;;;34.11;33.67;100792.28;5068394;28;20086;-66
2021/05/28 09:49:08;;;;;;;12.80;2.75;;;;;;;33.99;33.49;100799.66;5065537;28;20136;-66
2021/05/28 09:51:36;;;;;;;9.75;2.30;;;;;;;33.89;33.79;100799.50;5068167;28;20036;-66
2021/05/28 09:54:14;;;;;;;10.10;2.40;;;;;;;33.80;34.44;100792.06;5068153;28;20382;-66
2021/05/28 09:56:41;;;;;;;7.90;2.30;;;;;;;33.76;34.39;100793.28;5068940;28;20128;-66
2021/05/28 09:59:09;;;;;;;12.80;2.25;;;;;;;33.76;34.45;100795.13;5067854;28;20527;-66
2021/05/28 10:01:38;;;;;;;10.50;1.88;;;;;;;33.76;34.41;100800.63;5062789;28;20039;-66
2021/05/28 10:04:06;;;;;;;8.07;2.38;;;;;;;33.56;34.25;100805.81;5063569;28;20064;-67
2021/05/28 10:06:37;;;;;;;8.25;2.30;;;;;;;33.40;34.50;100810.78;5053052;28;20452;-66
2021/05/28 10:09:07;;;;;;;12.13;2.65;;;;;;;33.22;34.96;100795.75;5056218;28;20130;-66
2021/05/28 10:11:35;;;;;;;8.52;2.17;;;;;;;32.72;35.62;100796.91;5048791;28;20468;-66
2021/05/28 10:14:04;;;;;;;13.57;2.63;;;;;;;32.59;36.15;100794.22;5056114;28;20048;-66
2021/05/28 10:16:31;;;;;;;10.90;2.38;;;;;;;32.63;36.56;100792.09;5056865;28;20090;-67
2021/05/28 10:18:59;;;;;;;12.15;2.83;;;;;;;32.61;36.93;100805.91;5059951;28;20489;-66
2021/05/28 10:21:27;;;;;;;10.27;2.20;;;;;;;32.63;36.83;100803.91;5055362;28;20144;-67
2021/05/28 10:23:56;;;;;;;10.32;2.80;;;;;;;32.59;36.45;100810.63;5060108;28;20119;-67
2021/05/28 10:26:26;;;;;;;9.32;2.13;;;;;;;32.60;36.49;100815.09;5054967;28;20060;-66
2021/05/28 10:28:54;;;;;;;10.77;2.50;;;;;;;32.50;36.93;100814.03;5067638;28;20082;-67
2021/05/28 10:31:41;;;;;;;13.93;3.42;;;;;;;32.38;36.70;100814.94;5049408;28;20045;-66
2021/05/28 10:34:09;;;;;;;11.07;2.53;;;;;;;32.37;36.81;100819.53;5058462;28;20047;-67
2021/05/28 10:36:42;;;;;;;9.23;2.15;;;;;;;32.38;36.81;100818.56;5078240;28;20033;-67
2021/05/28 10:39:11;;;;;;;12.02;2.30;;;;;;;32.31;36.51;100824.59;5071944;28;20071;-67
2021/05/28 10:41:40;;;;;;;10.32;2.42;;;;;;;32.26;36.48;100822.22;5072114;28;20143;-67
2021/05/28 10:44:26;;;;;;;9.75;2.53;;;;;;;32.26;37.01;100816.75;5072289;28;20060;-67
2021/05/28 10:47:19;;;;;;;13.35;2.63;;;;;;;32.50;36.90;100813.16;5058388;28;20069;-67
2021/05/28 10:49:48;;;;;;;9.30;2.42;;;;;;;32.78;36.30;100813.72;5070904;28;20037;-66
2021/05/28 10:52:29;;;;;;;10.48;2.20;;;;;;;33.06;35.91;100819.81;5072477;28;20520;-66
2021/05/28 10:55:03;;;;;;;13.20;2.60;;;;;;;33.17;35.21;100819.84;5071637;28;20418;-67
2021/05/28 10:57:53;;;;;;;9.10;2.30;;;;;;;33.20;35.22;100814.19;5071814;28;20072;-66
2021/05/28 11:00:30;;;;;;;12.23;2.53;;;;;;;33.34;35.13;100810.38;5069233;28;20111;-66
2021/05/28 11:03:01;;;;;;;10.90;2.80;;;;;;;33.25;34.74;100800.13;5072320;28;20174;-67
2021/05/28 11:05:53;;;;;;;8.13;2.22;;;;;;;33.30;35.16;100808.84;5071778;28;20044;-67
2021/05/28 11:08:46;;;;;;;11.68;2.58;;;;;;;33.42;34.81;100814.22;5071580;28;20041;-67
2021/05/28 11:11:55;;;;;;;10.93;1.85;;;;;;;33.23;34.85;100809.34;5071827;28;20437;-67
2021/05/28 11:14:24;;;;;;;8.07;1.88;;;;;;;32.76;35.38;100807.50;5063858;28;20033;-66
2021/05/28 11:17:17;;;;;;;10.43;2.53;;;;;;;32.86;35.28;100810.41;5050939;28;20552;-66
2021/05/28 11:19:51;;;;;;;11.75;2.60;;;;;;;33.41;34.44;100808.91;5051916;28;20447;-66
2021/05/28 11:22:38;;;;;;;9.00;1.90;;;;;;;33.01;34.64;100809.25;5054308;28;20044;-66
2021/05/28 11:25:09;;;;;;;9.65;2.25;;;;;;;32.63;35.68;100797.56;5051732;28;20053;-65
2021/05/28 11:27:46;;;;;;;9.15;2.03;;;;;;;32.51;36.46;100793.91;5052719;28;20416;-65
2021/05/28 11:30:25;;;;;;;10.65;1.90;;;;;;;32.48;36.44;100793.28;5053019;28;21843;-66